Time;durP1;ratioP1;P1;durP2;ratioP2;P2;SDS_P1;SDS_P2;PMS_P1;PMS_P2;Temp;Humidity;BMP_temperature;BMP_pressure;BME280_temperature;BME280_humidity;BME280_pressure;Samples;Min_cycle;Max_cycle;Signal;HPM_P1;HPM_P2
2023/10/21 00:00:48;;;;;;;48.20;23.70;;;9.70;99.90;;;;;;5015098;28;20041;-60
2023/10/21 00:03:14;;;;;;;53.33;24.85;;;9.70;99.90;;;;;;5012191;28;20594;-59
2023/10/21 00:05:40;;;;;;;53.42;24.67;;;9.80;99.90;;;;;;5012808;28;23556;-60
2023/10/21 00:08:06;;;;;;;53.80;24.58;;;9.80;99.90;;;;;;5011509;28;20045;-59
2023/10/21 00:10:32;;;;;;;52.05;24.67;;;9.80;99.90;;;;;;5020018;28;20069;-58
2023/10/21 00:12:58;;;;;;;57.78;25.00;;;9.80;99.90;;;;;;5015028;28;20045;-61
2023/10/21 00:15:24;;;;;;;59.45;25.65;;;9.90;99.90;;;;;;5015514;28;20037;-60
2023/10/21 00:17:49;;;;;;;58.92;25.98;;;9.90;99.90;;;;;;5025229;28;20408;-59
2023/10/21 00:20:15;;;;;;;56.22;25.55;;;10.00;99.90;;;;;;5011099;28;20045;-58
2023/10/21 00:22:41;;;;;;;57.22;26.27;;;10.00;99.90;;;;;;4996930;28;20072;-60
2023/10/21 00:25:07;;;;;;;60.35;25.67;;;10.00;99.90;;;;;;5009441;28;20070;-58
2023/10/21 00:27:33;;;;;;;55.15;25.85;;;10.00;99.90;;;;;;5008061;28;20826;-61
2023/10/21 00:29:58;;;;;;;51.38;24.98;;;10.00;99.90;;;;;;5007573;28;20128;-59
2023/10/21 00:32:24;;;;;;;57.28;25.92;;;10.00;99.90;;;;;;5007355;28;20049;-60
2023/10/21 00:34:50;;;;;;;55.17;24.77;;;10.10;99.90;;;;;;5007546;28;20132;-61
2023/10/21 00:37:16;;;;;;;57.35;25.45;;;10.10;99.90;;;;;;5019485;28;20041;-59
2023/10/21 00:39:44;;;;;;;57.40;25.02;;;10.10;99.90;;;;;;5009491;28;20135;-60
2023/10/21 00:42:10;;;;;;;57.22;25.83;;;10.10;99.90;;;;;;5026795;28;20742;-61
2023/10/21 00:44:36;;;;;;;60.42;25.08;;;10.10;99.90;;;;;;5024847;28;20119;-60
2023/10/21 00:47:02;;;;;;;53.63;24.40;;;10.20;99.90;;;;;;5012616;28;20045;-60
2023/10/21 00:49:32;;;;;;;57.72;25.05;;;10.20;99.90;;;;;;5029700;28;20118;-59
2023/10/21 00:52:03;;;;;;;63.05;25.88;;;10.30;99.90;;;;;;5035225;28;20118;-60
2023/10/21 00:54:29;;;;;;;66.32;25.80;;;10.30;99.90;;;;;;5036262;28;20041;-59
2023/10/21 00:56:54;;;;;;;60.15;24.10;;;10.40;99.90;;;;;;5039731;28;20055;-61
2023/10/21 00:59:21;;;;;;;53.67;23.65;;;10.50;99.90;;;;;;5014479;28;20041;-59
2023/10/21 01:01:47;;;;;;;53.38;23.58;;;10.50;99.90;;;;;;5034768;28;20373;-59
2023/10/21 01:04:14;;;;;;;53.75;24.17;;;10.50;99.90;;;;;;5033053;28;20072;-59
2023/10/21 01:06:40;;;;;;;54.30;23.10;;;10.60;99.90;;;;;;5030539;28;20067;-59
2023/10/21 01:09:06;;;;;;;55.00;24.90;;;10.60;99.90;;;;;;5013197;28;20123;-60
2023/10/21 01:11:32;;;;;;;58.65;24.52;;;10.60;99.90;;;;;;5015705;28;20045;-59
2023/10/21 01:13:57;;;;;;;56.05;25.17;;;10.60;99.90;;;;;;5032681;28;20051;-59
2023/10/21 01:16:23;;;;;;;61.67;25.85;;;10.60;99.90;;;;;;5035494;28;20041;-60
2023/10/21 01:18:49;;;;;;;55.15;25.67;;;10.60;99.90;;;;;;5032649;28;20047;-60
2023/10/21 01:21:15;;;;;;;58.65;25.10;;;10.60;99.90;;;;;;5031303;28;20036;-59
2023/10/21 01:23:41;;;;;;;63.53;25.30;;;10.60;99.90;;;;;;5031964;28;20126;-60
2023/10/21 01:26:07;;;;;;;60.83;27.13;;;10.70;99.90;;;;;;5033867;28;20049;-58
2023/10/21 01:28:33;;;;;;;64.93;27.77;;;10.70;99.90;;;;;;5001540;28;20611;-60
2023/10/21 01:31:00;;;;;;;63.00;27.92;;;10.70;99.90;;;;;;5032487;28;20029;-58
2023/10/21 01:33:25;;;;;;;68.10;27.73;;;10.70;99.90;;;;;;5017948;28;20033;-59
2023/10/21 01:35:51;;;;;;;67.75;28.77;;;10.70;99.90;;;;;;5031396;28;20056;-60
2023/10/21 01:38:18;;;;;;;65.85;29.08;;;10.80;99.90;;;;;;5029005;28;20042;-58
2023/10/21 01:40:45;;;;;;;64.40;27.63;;;10.80;99.90;;;;;;5033899;28;20045;-60
2023/10/21 01:43:10;;;;;;;61.42;27.75;;;10.70;99.90;;;;;;5031666;28;20033;-56
2023/10/21 01:45:37;;;;;;;63.08;28.95;;;10.70;99.90;;;;;;5033279;28;20040;-60
2023/10/21 01:48:04;;;;;;;57.47;27.00;;;10.70;99.90;;;;;;5035154;28;20091;-60
2023/10/21 01:50:30;;;;;;;60.70;26.90;;;10.70;99.90;;;;;;5013632;28;20037;-58
2023/10/21 01:52:57;;;;;;;55.88;26.20;;;10.70;99.90;;;;;;5031935;28;20045;-60
2023/10/21 01:55:23;;;;;;;61.33;27.42;;;10.60;99.90;;;;;;5033197;28;20048;-59
2023/10/21 01:57:49;;;;;;;59.28;27.40;;;10.60;99.90;;;;;;5022136;28;20041;-58
2023/10/21 02:00:20;;;;;;;61.58;27.38;;;10.60;99.90;;;;;;5020815;28;20364;-60
2023/10/21 02:02:51;;;;;;;52.95;26.42;;;10.50;99.90;;;;;;5025266;28;20553;-58
2023/10/21 02:05:18;;;;;;;63.42;27.90;;;10.50;99.90;;;;;;5022150;28;20043;-59
2023/10/21 02:07:44;;;;;;;53.30;26.63;;;10.40;99.90;;;;;;5023654;28;20141;-61
2023/10/21 02:10:09;;;;;;;59.88;26.42;;;10.40;99.90;;;;;;5025380;28;21059;-59
2023/10/21 02:12:35;;;;;;;59.10;27.10;;;10.40;99.90;;;;;;5022047;28;20056;-60
2023/10/21 02:15:01;;;;;;;61.90;27.02;;;10.40;99.90;;;;;;5004953;28;20541;-58
2023/10/21 02:17:27;;;;;;;58.53;26.42;;;10.30;99.90;;;;;;5022470;28;20083;-60
2023/10/21 02:19:56;;;;;;;57.50;27.02;;;10.30;99.90;;;;;;5025048;28;20044;-59
2023/10/21 02:22:25;;;;;;;63.38;27.67;;;10.30;99.90;;;;;;5023901;28;20060;-60
2023/10/21 02:24:53;;;;;;;65.68;28.42;;;10.30;99.90;;;;;;5007049;28;20079;-59
2023/10/21 02:27:19;;;;;;;63.53;28.60;;;10.30;99.90;;;;;;5028710;28;20471;-60
2023/10/21 02:29:45;;;;;;;63.10;28.80;;;10.30;99.90;;;;;;5030331;28;20535;-61
2023/10/21 02:32:11;;;;;;;63.35;29.27;;;10.30;99.90;;;;;;5032212;28;20505;-61
2023/10/21 02:34:37;;;;;;;58.47;27.80;;;10.30;99.90;;;;;;5037174;28;20072;-60
2023/10/21 02:37:03;;;;;;;65.35;27.75;;;10.20;99.90;;;;;;5011825;28;20167;-60
2023/10/21 02:39:29;;;;;;;61.83;27.70;;;10.30;99.90;;;;;;5030442;28;20128;-60
2023/10/21 02:41:55;;;;;;;61.40;27.05;;;10.20;99.90;;;;;;5015271;28;20504;-59
2023/10/21 02:44:21;;;;;;;56.85;28.05;;;10.30;99.90;;;;;;5029119;28;20552;-60
2023/10/21 02:46:48;;;;;;;58.58;28.27;;;10.30;99.90;;;;;;5018159;28;20052;-61
2023/10/21 02:49:14;;;;;;;63.00;27.30;;;10.20;99.90;;;;;;5031812;28;20053;-59
2023/10/21 02:51:40;;;;;;;56.72;27.13;;;10.20;99.90;;;;;;4996503;28;20056;-59
2023/10/21 02:54:07;;;;;;;53.70;25.90;;;10.20;99.90;;;;;;5031693;28;20412;-58
2023/10/21 02:56:33;;;;;;;53.70;25.90;;;10.20;99.90;;;;;;5028892;28;20053;-60
2023/10/21 02:58:59;;;;;;;55.00;25.80;;;10.20;99.90;;;;;;5032905;28;20045;-58
2023/10/21 03:01:25;;;;;;;51.25;25.25;;;10.20;99.90;;;;;;5023881;28;20048;-60
2023/10/21 03:03:51;;;;;;;49.95;24.20;;;10.20;99.90;;;;;;5029666;28;20045;-61
2023/10/21 03:06:19;;;;;;;49.42;23.73;;;10.20;99.90;;;;;;5026905;28;21713;-60
2023/10/21 03:08:48;;;;;;;43.70;23.75;;;10.20;99.90;;;;;;5030909;28;20520;-58
2023/10/21 03:11:14;;;;;;;47.25;22.75;;;10.20;99.90;;;;;;5032778;28;20051;-59
2023/10/21 03:13:40;;;;;;;42.33;22.98;;;10.20;99.90;;;;;;5033041;28;20048;-59
2023/10/21 03:16:08;;;;;;;46.17;22.52;;;10.20;99.90;;;;;;5027402;28;20906;-58
2023/10/21 03:18:35;;;;;;;46.50;23.33;;;10.10;99.90;;;;;;5033124;28;20128;-60
2023/10/21 03:21:01;;;;;;;44.03;23.92;;;10.10;99.90;;;;;;5039666;28;20057;-59
2023/10/21 03:23:28;;;;;;;43.25;23.15;;;10.10;99.90;;;;;;5032205;28;20041;-60
2023/10/21 03:25:58;;;;;;;51.38;24.52;;;10.10;99.90;;;;;;5020116;28;20044;-61
2023/10/21 03:28:26;;;;;;;49.38;24.67;;;10.10;99.90;;;;;;5032707;28;20044;-60
2023/10/21 03:31:04;;;;;;;47.58;25.02;;;10.00;99.90;;;;;;5034361;28;20049;-60
2023/10/21 03:33:30;;;;;;;46.63;23.60;;;10.00;99.90;;;;;;5034959;28;20043;-60
2023/10/21 03:35:58;;;;;;;49.45;25.15;;;10.00;99.90;;;;;;5033709;28;20051;-58
2023/10/21 03:38:24;;;;;;;48.58;24.42;;;9.90;99.90;;;;;;5035897;28;20956;-60
2023/10/21 03:41:00;;;;;;;50.65;24.75;;;9.90;99.90;;;;;;5034242;28;20051;-59
2023/10/21 03:43:26;;;;;;;50.55;24.85;;;9.90;99.90;;;;;;5033865;28;20048;-60
2023/10/21 03:45:53;;;;;;;50.55;24.27;;;9.90;99.90;;;;;;5033860;28;20045;-59
2023/10/21 03:48:19;;;;;;;48.10;24.08;;;9.90;99.90;;;;;;5033122;28;20040;-59
2023/10/21 03:50:45;;;;;;;48.55;24.65;;;9.90;99.90;;;;;;5045899;28;20495;-60
2023/10/21 03:53:11;;;;;;;53.33;25.33;;;9.90;99.90;;;;;;5023742;28;20187;-59
2023/10/21 03:55:37;;;;;;;53.72;24.80;;;9.90;99.90;;;;;;5024825;28;20044;-61
2023/10/21 03:58:04;;;;;;;56.13;25.52;;;9.90;99.90;;;;;;5045366;28;20095;-56
2023/10/21 04:00:29;;;;;;;52.40;25.80;;;9.90;99.90;;;;;;5044350;28;20040;-59
2023/10/21 04:02:55;;;;;;;56.08;25.80;;;9.90;99.90;;;;;;5039146;28;20494;-61
2023/10/21 04:05:21;;;;;;;53.38;25.42;;;9.90;99.90;;;;;;5035241;28;20094;-60
2023/10/21 04:07:46;;;;;;;53.15;25.63;;;9.90;99.90;;;;;;5037155;28;20757;-61
2023/10/21 04:10:12;;;;;;;56.97;26.23;;;9.90;99.90;;;;;;5034552;28;20448;-59
2023/10/21 04:12:39;;;;;;;55.72;26.48;;;9.90;99.90;;;;;;5030639;28;20106;-60
2023/10/21 04:15:07;;;;;;;54.80;25.42;;;9.90;99.90;;;;;;5033306;28;20543;-60
2023/10/21 04:17:34;;;;;;;52.83;25.88;;;9.80;99.90;;;;;;5034937;28;20045;-60
2023/10/21 04:19:59;;;;;;;56.38;26.17;;;9.80;99.90;;;;;;5017690;28;20033;-60
2023/10/21 04:22:25;;;;;;;52.55;26.20;;;9.90;99.90;;;;;;5038396;28;20091;-60
2023/10/21 04:24:51;;;;;;;52.15;25.15;;;9.80;99.90;;;;;;5016422;28;20045;-60
2023/10/21 04:27:17;;;;;;;50.58;25.00;;;9.80;99.90;;;;;;5015098;28;20568;-61
2023/10/21 04:29:42;;;;;;;53.42;26.48;;;9.80;99.90;;;;;;5030662;28;20135;-60
2023/10/21 04:32:08;;;;;;;52.90;25.30;;;9.80;99.90;;;;;;5017252;28;20087;-60
2023/10/21 04:34:34;;;;;;;48.33;24.98;;;9.80;99.90;;;;;;5036056;28;20045;-60
2023/10/21 04:37:00;;;;;;;47.78;24.67;;;9.80;99.90;;;;;;5031612;28;20517;-58
2023/10/21 04:39:28;;;;;;;55.63;24.90;;;9.80;99.90;;;;;;5037474;28;20049;-61
2023/10/21 04:41:54;;;;;;;47.80;25.90;;;9.80;99.90;;;;;;5033923;28;20060;-61
2023/10/21 04:44:20;;;;;;;45.53;23.75;;;9.80;99.90;;;;;;5034088;28;20468;-58
2023/10/21 04:46:46;;;;;;;46.15;22.45;;;9.80;99.90;;;;;;5037164;28;20033;-59
2023/10/21 04:49:13;;;;;;;44.28;23.55;;;9.80;99.90;;;;;;5021124;28;20049;-60
2023/10/21 04:51:42;;;;;;;48.10;23.13;;;9.80;99.90;;;;;;5027187;28;20048;-60
2023/10/21 04:54:08;;;;;;;47.20;23.35;;;9.80;99.90;;;;;;5005305;28;20828;-57
2023/10/21 04:56:34;;;;;;;45.03;21.92;;;9.80;99.90;;;;;;5012708;28;20951;-59
2023/10/21 04:59:00;;;;;;;40.10;21.80;;;9.80;99.90;;;;;;5030233;28;20041;-61
2023/10/21 05:01:25;;;;;;;43.58;22.08;;;9.80;99.90;;;;;;5011004;28;24183;-60
2023/10/21 05:03:51;;;;;;;38.45;20.80;;;9.80;99.90;;;;;;5027002;28;20746;-60
2023/10/21 05:06:17;;;;;;;42.30;21.27;;;9.80;99.90;;;;;;5025327;28;20041;-60
2023/10/21 05:08:43;;;;;;;35.97;20.45;;;9.80;99.90;;;;;;5028103;28;20507;-59
2023/10/21 05:11:09;;;;;;;36.63;20.08;;;9.80;99.90;;;;;;5011363;28;20058;-58
2023/10/21 05:13:34;;;;;;;33.22;19.73;;;9.80;99.90;;;;;;5027936;28;20447;-59
2023/10/21 05:16:00;;;;;;;38.05;20.10;;;9.80;99.90;;;;;;5028283;28;20068;-60
2023/10/21 05:18:26;;;;;;;35.60;19.13;;;9.80;99.90;;;;;;5030899;28;20488;-61
2023/10/21 05:20:52;;;;;;;42.15;19.13;;;9.80;99.90;;;;;;5037795;28;20060;-58
2023/10/21 05:23:18;;;;;;;34.15;18.55;;;9.80;99.90;;;;;;5019619;28;20122;-59
2023/10/21 05:25:44;;;;;;;35.83;19.05;;;9.90;99.90;;;;;;5029727;28;20041;-58
2023/10/21 05:28:10;;;;;;;34.65;18.52;;;9.90;99.90;;;;;;5032904;28;20045;-59
2023/10/21 05:30:37;;;;;;;34.65;18.27;;;9.90;99.90;;;;;;5036840;28;20683;-58
2023/10/21 05:33:04;;;;;;;34.75;18.20;;;9.90;99.90;;;;;;5035214;28;20044;-60
2023/10/21 05:35:30;;;;;;;32.70;17.95;;;9.90;99.90;;;;;;5012682;28;20060;-60
2023/10/21 05:37:56;;;;;;;33.28;18.90;;;9.90;99.90;;;;;;5035722;28;20461;-60
2023/10/21 05:40:22;;;;;;;27.65;16.20;;;9.90;99.90;;;;;;5035844;28;20040;-58
2023/10/21 05:42:47;;;;;;;29.52;17.42;;;9.90;99.90;;;;;;5031530;28;20510;-58
2023/10/21 05:45:13;;;;;;;34.33;17.02;;;9.90;99.90;;;;;;5006056;28;20487;-58
2023/10/21 05:47:39;;;;;;;35.38;18.25;;;9.90;99.90;;;;;;5027729;28;20056;-60
2023/10/21 05:50:05;;;;;;;31.33;17.58;;;9.90;99.90;;;;;;5046079;28;20063;-60
2023/10/21 05:52:31;;;;;;;29.60;16.90;;;10.00;99.90;;;;;;5035065;28;20156;-58
2023/10/21 05:54:57;;;;;;;35.22;18.63;;;10.00;99.90;;;;;;4994952;28;20151;-61
2023/10/21 05:57:22;;;;;;;30.58;16.92;;;10.00;99.90;;;;;;5048536;28;20044;-61
2023/10/21 05:59:48;;;;;;;28.33;16.33;;;10.00;99.90;;;;;;5047157;28;20974;-60
2023/10/21 06:02:14;;;;;;;33.53;17.65;;;10.00;99.90;;;;;;5048257;28;20032;-59
2023/10/21 06:04:40;;;;;;;30.75;17.10;;;10.00;99.90;;;;;;5047835;28;20498;-60
2023/10/21 06:07:06;;;;;;;31.27;17.40;;;10.00;99.90;;;;;;5046623;28;20033;-59
2023/10/21 06:09:32;;;;;;;33.42;16.60;;;10.10;99.90;;;;;;5043043;28;20491;-59
2023/10/21 06:11:59;;;;;;;33.75;17.50;;;10.10;99.90;;;;;;5045716;28;20127;-61
2023/10/21 06:14:25;;;;;;;31.70;17.27;;;10.10;99.90;;;;;;5045567;28;20401;-60
2023/10/21 06:16:51;;;;;;;30.23;16.52;;;10.10;99.90;;;;;;5044193;28;20103;-60
2023/10/21 06:19:16;;;;;;;29.38;16.67;;;10.10;99.90;;;;;;5047730;28;20041;-59
2023/10/21 06:21:42;;;;;;;32.13;17.15;;;10.20;99.90;;;;;;5045063;28;20408;-60
2023/10/21 06:24:08;;;;;;;26.75;16.08;;;10.20;99.90;;;;;;5047010;28;20072;-59
2023/10/21 06:26:34;;;;;;;29.77;16.85;;;10.20;99.90;;;;;;5016260;28;20603;-57
2023/10/21 06:29:00;;;;;;;30.00;16.75;;;10.20;99.90;;;;;;5039051;28;20036;-60
2023/10/21 06:31:26;;;;;;;32.58;15.77;;;10.20;99.90;;;;;;5006381;28;20044;-60
2023/10/21 06:33:55;;;;;;;30.75;15.68;;;10.20;99.90;;;;;;5017519;28;20102;-61
2023/10/21 06:36:21;;;;;;;28.33;17.00;;;10.30;99.90;;;;;;5034030;28;20051;-60
2023/10/21 06:38:49;;;;;;;29.75;15.63;;;10.30;99.90;;;;;;5008123;28;20067;-59
2023/10/21 06:41:16;;;;;;;32.00;15.93;;;10.30;99.90;;;;;;5037459;28;20060;-60
2023/10/21 06:43:43;;;;;;;30.20;15.70;;;10.30;99.90;;;;;;5030237;28;20068;-60
2023/10/21 06:46:09;;;;;;;26.42;16.08;;;10.30;99.90;;;;;;5031952;28;20045;-60
2023/10/21 06:48:35;;;;;;;30.38;16.08;;;10.30;99.90;;;;;;5035676;28;20052;-60
2023/10/21 06:51:01;;;;;;;27.48;15.25;;;10.40;99.90;;;;;;5033663;28;20083;-59
2023/10/21 06:53:27;;;;;;;28.40;16.23;;;10.40;99.90;;;;;;5037816;28;20041;-61
2023/10/21 06:55:53;;;;;;;28.63;15.65;;;10.40;99.90;;;;;;5030304;28;20055;-61
2023/10/21 06:58:19;;;;;;;30.13;15.70;;;10.40;99.90;;;;;;5012789;28;20515;-58
2023/10/21 07:00:46;;;;;;;26.27;15.75;;;10.40;99.90;;;;;;5033910;28;20048;-60
2023/10/21 07:03:12;;;;;;;28.77;16.45;;;10.40;99.90;;;;;;5035544;28;20056;-60
2023/10/21 07:05:38;;;;;;;29.75;15.85;;;10.40;99.90;;;;;;5036741;28;20048;-58
2023/10/21 07:08:05;;;;;;;26.25;15.60;;;10.40;99.90;;;;;;5031845;28;20041;-60
2023/10/21 07:10:32;;;;;;;27.00;15.95;;;10.40;99.90;;;;;;5034080;28;20052;-61
2023/10/21 07:13:01;;;;;;;27.23;16.42;;;10.40;99.90;;;;;;5013472;28;20094;-60
2023/10/21 07:15:28;;;;;;;28.02;15.50;;;10.40;99.90;;;;;;5033925;28;20496;-60
2023/10/21 07:17:55;;;;;;;27.92;15.30;;;10.50;99.90;;;;;;5020202;28;20067;-60
2023/10/21 07:20:20;;;;;;;30.20;15.73;;;10.50;99.90;;;;;;5034878;28;20380;-59
2023/10/21 07:22:47;;;;;;;27.73;15.75;;;10.50;99.90;;;;;;5028444;28;20043;-61
2023/10/21 07:25:13;;;;;;;25.83;15.18;;;10.50;99.90;;;;;;5030799;28;20044;-60
2023/10/21 07:27:39;;;;;;;27.02;16.02;;;10.50;99.90;;;;;;5023161;28;20135;-60
2023/10/21 07:30:05;;;;;;;29.33;15.65;;;10.50;99.90;;;;;;5017094;28;20586;-60
2023/10/21 07:32:31;;;;;;;26.88;14.68;;;10.50;99.90;;;;;;5038268;28;20052;-60
2023/10/21 07:34:57;;;;;;;27.98;15.15;;;10.60;99.90;;;;;;5033688;28;20037;-59
2023/10/21 07:37:22;;;;;;;28.73;15.77;;;10.60;99.90;;;;;;5017708;28;20033;-60
2023/10/21 07:39:48;;;;;;;25.45;14.60;;;10.70;99.90;;;;;;5034891;28;20094;-61
2023/10/21 07:42:14;;;;;;;29.15;15.60;;;10.70;99.90;;;;;;5034632;28;20080;-60
2023/10/21 07:44:41;;;;;;;34.78;16.00;;;10.70;99.90;;;;;;5037305;28;20404;-59
2023/10/21 07:47:07;;;;;;;25.23;15.48;;;10.80;99.90;;;;;;5032645;28;20547;-60
2023/10/21 07:49:33;;;;;;;28.10;15.27;;;10.80;99.90;;;;;;5033730;28;20045;-59
2023/10/21 07:51:59;;;;;;;26.70;15.43;;;10.80;99.90;;;;;;5037097;28;20498;-60
2023/10/21 07:54:25;;;;;;;27.45;15.05;;;10.90;99.90;;;;;;5033413;28;20543;-59
2023/10/21 07:56:52;;;;;;;27.58;15.57;;;10.90;99.90;;;;;;5016581;28;20106;-61
2023/10/21 07:59:19;;;;;;;27.52;14.60;;;11.00;99.90;;;;;;5029412;28;20569;-59
2023/10/21 08:01:45;;;;;;;26.20;14.93;;;11.00;99.90;;;;;;5030405;28;20736;-60
2023/10/21 08:04:11;;;;;;;24.27;14.73;;;11.10;99.90;;;;;;5032006;28;20048;-61
2023/10/21 08:06:38;;;;;;;29.35;15.45;;;11.10;99.90;;;;;;5025170;28;20039;-61
2023/10/21 08:09:04;;;;;;;25.98;14.75;;;11.10;99.90;;;;;;5036418;28;20044;-62
2023/10/21 08:11:32;;;;;;;26.58;15.07;;;11.10;99.90;;;;;;5030191;28;20457;-60
2023/10/21 08:13:58;;;;;;;24.67;14.23;;;11.20;99.90;;;;;;5035337;28;20045;-60
2023/10/21 08:16:24;;;;;;;24.48;13.60;;;11.20;99.90;;;;;;5028098;28;20584;-58
2023/10/21 08:18:50;;;;;;;25.33;14.52;;;11.30;99.90;;;;;;5020643;28;20732;-58
2023/10/21 08:21:16;;;;;;;21.77;14.02;;;11.40;99.90;;;;;;5007147;28;20060;-60
2023/10/21 08:23:42;;;;;;;27.95;14.48;;;11.40;99.90;;;;;;5013333;28;20891;-59
2023/10/21 08:26:08;;;;;;;26.65;14.65;;;11.50;99.90;;;;;;5025479;28;20128;-60
2023/10/21 08:28:34;;;;;;;23.65;13.93;;;11.50;99.90;;;;;;5028975;28;20037;-58
2023/10/21 08:31:00;;;;;;;24.10;14.63;;;11.60;99.90;;;;;;5033807;28;20430;-60
2023/10/21 08:33:26;;;;;;;28.38;14.63;;;11.70;99.90;;;;;;5031861;28;20102;-59
2023/10/21 08:35:52;;;;;;;25.08;13.80;;;11.70;99.90;;;;;;5019546;28;20041;-59
2023/10/21 08:38:18;;;;;;;23.08;13.95;;;11.80;99.90;;;;;;5004673;28;20102;-61
2023/10/21 08:40:46;;;;;;;23.20;13.15;;;11.80;99.90;;;;;;4997807;28;20095;-60
2023/10/21 08:43:17;;;;;;;22.65;13.82;;;11.80;99.90;;;;;;5009568;28;20937;-60
2023/10/21 08:45:44;;;;;;;24.40;14.60;;;11.80;99.90;;;;;;5011956;28;20037;-59
2023/10/21 08:48:11;;;;;;;26.92;14.25;;;11.90;99.90;;;;;;5011118;28;20091;-61
2023/10/21 08:50:39;;;;;;;27.65;14.95;;;11.90;99.90;;;;;;5012331;28;20115;-61
2023/10/21 08:53:13;;;;;;;26.10;14.75;;;12.00;99.90;;;;;;5010786;28;20631;-61
2023/10/21 08:55:39;;;;;;;20.48;13.57;;;12.00;99.90;;;;;;5008233;28;20605;-58
2023/10/21 08:58:06;;;;;;;28.40;15.75;;;12.10;99.90;;;;;;5012614;28;20129;-59
2023/10/21 09:00:33;;;;;;;24.95;14.23;;;12.20;99.90;;;;;;5006646;28;20418;-61
2023/10/21 09:02:59;;;;;;;27.63;15.10;;;12.40;99.90;;;;;;5003384;28;20046;-57
2023/10/21 09:05:24;;;;;;;24.30;14.73;;;12.50;99.90;;;;;;4983700;28;20042;-59
2023/10/21 09:07:50;;;;;;;25.15;14.57;;;12.60;99.90;;;;;;5005071;28;20050;-60
2023/10/21 09:10:17;;;;;;;23.73;14.20;;;12.80;99.90;;;;;;5002368;28;20480;-59
2023/10/21 09:12:43;;;;;;;23.88;14.65;;;13.00;99.90;;;;;;5009734;28;20072;-60
2023/10/21 09:15:09;;;;;;;22.52;14.50;;;13.10;99.90;;;;;;4989805;28;20087;-60
2023/10/21 09:17:46;;;;;;;22.55;13.43;;;13.30;99.90;;;;;;4988944;28;20037;-59
2023/10/21 09:20:16;;;;;;;20.10;12.23;;;13.50;99.90;;;;;;4967497;28;20164;-61
2023/10/21 09:22:46;;;;;;;18.58;12.32;;;13.60;99.90;;;;;;4979829;28;20041;-60
2023/10/21 09:25:18;;;;;;;21.00;11.68;;;13.80;99.90;;;;;;4997852;28;20151;-60
2023/10/21 09:27:53;;;;;;;17.00;11.05;;;13.90;99.90;;;;;;5004996;28;20096;-58
2023/10/21 09:30:20;;;;;;;13.82;9.73;;;14.00;99.90;;;;;;5007659;28;20037;-61
2023/10/21 09:32:47;;;;;;;13.15;9.55;;;14.10;99.90;;;;;;5009971;28;20033;-59
2023/10/21 09:35:21;;;;;;;13.70;9.55;;;14.00;99.90;;;;;;5006277;28;20045;-61
2023/10/21 09:37:48;;;;;;;15.27;10.02;;;14.10;99.90;;;;;;5007934;28;20045;-61
2023/10/21 09:40:15;;;;;;;18.15;9.60;;;14.10;99.90;;;;;;5005904;28;20053;-60
2023/10/21 09:42:44;;;;;;;20.25;9.77;;;14.10;99.90;;;;;;5027520;28;20053;-59
2023/10/21 09:45:15;;;;;;;16.25;9.73;;;14.10;99.90;;;;;;5028186;28;20520;-57
2023/10/21 09:47:43;;;;;;;14.68;8.57;;;14.20;99.90;;;;;;4991301;28;20087;-60
2023/10/21 09:50:13;;;;;;;13.60;8.52;;;14.20;99.90;;;;;;5008042;28;20535;-60
2023/10/21 09:52:46;;;;;;;13.30;8.60;;;14.10;99.90;;;;;;5020941;28;20032;-60
2023/10/21 09:55:13;;;;;;;12.75;8.73;;;14.10;99.90;;;;;;5024621;28;21934;-60
2023/10/21 09:57:44;;;;;;;13.93;8.50;;;14.10;99.90;;;;;;5027122;28;20157;-61
2023/10/21 10:00:10;;;;;;;11.18;8.23;;;14.10;99.90;;;;;;5022437;28;20217;-62
2023/10/21 10:02:42;;;;;;;18.98;8.18;;;14.10;99.90;;;;;;5025845;28;20515;-61
2023/10/21 10:05:08;;;;;;;12.98;7.40;;;14.10;99.90;;;;;;5024502;28;20131;-59
2023/10/21 10:07:36;;;;;;;12.85;6.57;;;14.10;99.90;;;;;;5021005;28;20047;-60
2023/10/21 10:10:07;;;;;;;10.38;5.57;;;14.10;99.90;;;;;;5013394;28;20047;-61
2023/10/21 10:12:38;;;;;;;10.27;5.03;;;14.20;99.90;;;;;;5021123;28;20043;-60
2023/10/21 10:15:34;;;;;;;9.63;4.60;;;14.20;99.90;;;;;;5029362;28;20044;-60
2023/10/21 10:18:03;;;;;;;7.45;4.13;;;14.20;99.90;;;;;;5026940;28;20045;-60
2023/10/21 10:20:29;;;;;;;7.00;4.20;;;14.20;99.90;;;;;;5021808;28;20650;-60
2023/10/21 10:22:59;;;;;;;10.13;3.78;;;14.20;99.90;;;;;;5016958;28;20048;-60
2023/10/21 10:25:30;;;;;;;8.82;3.80;;;14.20;99.90;;;;;;5023440;28;20507;-58
2023/10/21 10:27:59;;;;;;;6.35;3.60;;;14.20;99.90;;;;;;5022134;28;20497;-60
2023/10/21 10:30:31;;;;;;;9.43;3.67;;;14.20;99.90;;;;;;5021941;28;20079;-60
2023/10/21 10:33:01;;;;;;;6.25;3.30;;;14.20;99.90;;;;;;5019077;28;20047;-60
2023/10/21 10:35:32;;;;;;;7.00;3.38;;;14.20;99.90;;;;;;5019243;28;20075;-61
2023/10/21 10:38:01;;;;;;;8.57;3.50;;;14.20;99.90;;;;;;5025730;28;20484;-61
2023/10/21 10:40:40;;;;;;;6.40;3.53;;;14.20;99.90;;;;;;5028459;28;20044;-60
2023/10/21 10:43:13;;;;;;;7.63;3.35;;;14.20;99.90;;;;;;5024244;28;20051;-58
2023/10/21 10:45:40;;;;;;;6.65;3.72;;;14.20;99.90;;;;;;5013489;28;20056;-60
2023/10/21 10:48:09;;;;;;;5.18;3.30;;;14.20;99.90;;;;;;4999925;28;20045;-59
2023/10/21 10:50:36;;;;;;;5.18;3.03;;;14.20;99.90;;;;;;5013594;28;20132;-58
2023/10/21 10:53:15;;;;;;;8.02;3.10;;;14.20;99.90;;;;;;5019087;28;21254;-60
2023/10/21 10:55:43;;;;;;;8.20;3.42;;;14.20;99.90;;;;;;5017802;28;20048;-60
2023/10/21 10:58:11;;;;;;;5.95;2.50;;;14.20;99.90;;;;;;5016231;28;20060;-60
2023/10/21 11:00:39;;;;;;;4.38;2.55;;;14.20;99.90;;;;;;5031494;28;20142;-60
2023/10/21 11:03:06;;;;;;;4.85;1.88;;;14.10;99.90;;;;;;5037343;28;20037;-59
2023/10/21 11:05:33;;;;;;;2.53;1.90;;;14.20;99.90;;;;;;5034859;28;22024;-60
2023/10/21 11:07:59;;;;;;;3.53;2.22;;;14.20;99.90;;;;;;5034313;28;20071;-59
2023/10/21 11:10:25;;;;;;;5.18;2.08;;;14.20;99.90;;;;;;5039031;28;20033;-60
2023/10/21 11:12:51;;;;;;;2.70;1.92;;;14.20;99.90;;;;;;5039381;28;20056;-60
2023/10/21 11:15:19;;;;;;;2.38;1.98;;;14.30;99.90;;;;;;5037623;28;20119;-60
2023/10/21 11:17:48;;;;;;;2.67;1.50;;;14.20;99.90;;;;;;5035655;28;20041;-58
2023/10/21 11:20:15;;;;;;;2.83;1.38;;;14.20;99.90;;;;;;5038423;28;20041;-60
2023/10/21 11:22:42;;;;;;;2.25;1.55;;;14.10;99.90;;;;;;5035830;28;20044;-59
2023/10/21 11:25:08;;;;;;;3.28;1.90;;;14.10;99.90;;;;;;5034701;28;20029;-59
2023/10/21 11:27:36;;;;;;;2.60;2.40;;;14.10;99.90;;;;;;5038879;28;20087;-59
2023/10/21 11:30:07;;;;;;;1.85;1.70;;;14.00;99.90;;;;;;5037918;28;20140;-60
2023/10/21 11:32:35;;;;;;;3.50;2.85;;;14.00;99.90;;;;;;5018781;28;20399;-59
2023/10/21 11:35:12;;;;;;;4.78;2.20;;;14.00;99.90;;;;;;5035610;28;20083;-60
2023/10/21 11:37:41;;;;;;;3.58;1.63;;;14.10;99.90;;;;;;5036433;28;20515;-57
2023/10/21 11:40:11;;;;;;;2.35;1.40;;;14.10;99.90;;;;;;5037426;28;20051;-60
2023/10/21 11:42:39;;;;;;;2.80;1.60;;;14.20;99.90;;;;;;5042266;28;20744;-59
2023/10/21 11:45:07;;;;;;;2.47;1.40;;;14.30;99.90;;;;;;5041566;28;20029;-60
2023/10/21 11:47:33;;;;;;;4.80;2.97;;;14.40;99.90;;;;;;5018799;28;20514;-60
2023/10/21 11:49:59;;;;;;;3.83;2.10;;;14.40;99.90;;;;;;5036516;28;20472;-61
2023/10/21 11:52:26;;;;;;;3.50;2.28;;;14.40;99.90;;;;;;5036526;28;20055;-58
2023/10/21 12:22:12;;;;;;;4.03;1.27;;;14.10;99.90;;;;;;5036206;28;20045;-60
2023/10/21 12:28:13;;;;;;;2.42;0.98;;;14.10;99.90;;;;;;5037075;28;20044;-60
2023/10/21 12:41:11;;;;;;;1.75;1.10;;;14.30;99.90;;;;;;5037947;28;20049;-59
2023/10/21 12:43:35;;;;;;;2.08;0.98;;;14.50;99.90;;;;;;5040248;28;20045;-61
2023/10/21 12:46:14;;;;;;;3.97;0.98;;;14.70;99.90;;;;;;5019690;28;20406;-58
2023/10/21 12:48:41;;;;;;;4.95;1.00;;;15.00;99.90;;;;;;5040098;28;20485;-60
2023/10/21 12:51:09;;;;;;;4.78;1.00;;;15.20;99.90;;;;;;5016628;28;20495;-62
2023/10/21 12:53:35;;;;;;;3.22;1.20;;;15.20;99.90;;;;;;5039175;28;20185;-60
2023/10/21 12:56:06;;;;;;;3.03;0.95;;;15.20;99.90;;;;;;5038398;28;20045;-60
2023/10/21 12:58:32;;;;;;;2.28;0.90;;;15.10;99.90;;;;;;5040229;28;20639;-60
2023/10/21 13:00:58;;;;;;;4.55;1.00;;;15.10;99.90;;;;;;5038066;28;20048;-60
2023/10/21 13:03:24;;;;;;;1.13;0.90;;;15.00;99.90;;;;;;5040190;28;20475;-59
2023/10/21 13:05:52;;;;;;;3.40;1.00;;;14.90;99.90;;;;;;5034418;28;20041;-59
2023/10/21 13:08:21;;;;;;;1.67;0.77;;;14.90;99.90;;;;;;5036422;28;20083;-60
2023/10/21 13:10:48;;;;;;;4.80;0.93;;;15.00;99.90;;;;;;5040041;28;20813;-61
2023/10/21 13:13:17;;;;;;;2.35;0.88;;;15.10;99.90;;;;;;5020205;28;20043;-60